createdAt,value
2019-02-07T00:01:30.442Z,12.30
2019-02-07T00:04:00.059Z,10.70
2019-02-07T00:06:29.725Z,12.97
2019-02-07T00:08:59.286Z,11.80
2019-02-07T00:11:28.955Z,11.87
2019-02-07T00:13:58.891Z,11.50
2019-02-07T00:16:28.578Z,12.17
2019-02-07T00:18:58.415Z,11.37
2019-02-07T00:21:28.116Z,14.30
2019-02-07T00:23:57.785Z,11.73
2019-02-07T00:26:27.517Z,12.70
2019-02-07T00:28:57.175Z,15.23
2019-02-07T00:31:26.792Z,13.17
2019-02-07T00:33:56.452Z,14.07
2019-02-07T00:36:26.108Z,12.30
2019-02-07T00:38:55.769Z,12.20
2019-02-07T00:41:25.548Z,12.87
2019-02-07T00:43:55.690Z,12.40
2019-02-07T00:46:25.333Z,11.07
2019-02-07T00:48:55.011Z,13.20
2019-02-07T00:51:24.658Z,12.93
2019-02-07T00:53:54.425Z,13.97
2019-02-07T00:56:23.995Z,13.33
2019-02-07T00:58:53.972Z,13.40
2019-02-07T01:01:23.632Z,11.87
2019-02-07T01:03:53.394Z,13.63
2019-02-07T01:06:23.050Z,13.10
2019-02-07T01:08:52.674Z,13.30
2019-02-07T01:11:22.232Z,11.10
2019-02-07T01:13:52.028Z,12.43
2019-02-07T01:16:21.682Z,13.90
2019-02-07T01:18:51.229Z,13.67
2019-02-07T01:21:20.991Z,14.47
2019-02-07T01:23:50.649Z,12.33
2019-02-07T01:26:20.297Z,11.90
2019-02-07T01:28:49.945Z,12.60
2019-02-07T01:31:19.507Z,13.93
2019-02-07T01:33:49.178Z,14.23
2019-02-07T01:36:18.780Z,13.30
2019-02-07T01:38:48.513Z,12.60
2019-02-07T01:41:18.468Z,11.67
2019-02-07T01:43:48.234Z,12.50
2019-02-07T01:46:18.064Z,9.37
2019-02-07T01:48:47.751Z,11.83
2019-02-07T01:51:17.386Z,9.60
2019-02-07T01:53:47.132Z,10.93
2019-02-07T01:56:17.039Z,9.63
2019-02-07T01:58:46.612Z,11.57
2019-02-07T02:01:16.304Z,13.47
2019-02-07T02:03:45.933Z,13.77
2019-02-07T02:06:15.524Z,14.57
2019-02-07T02:08:45.243Z,12.37
2019-02-07T02:11:14.959Z,11.97
2019-02-07T02:13:44.613Z,12.87
2019-02-07T02:16:14.236Z,9.60
2019-02-07T02:18:43.817Z,13.23
2019-02-07T02:21:13.486Z,10.97
2019-02-07T02:23:43.117Z,13.50
2019-02-07T02:26:12.894Z,13.47
2019-02-07T02:28:42.455Z,12.53
2019-02-07T02:31:12.105Z,12.23
2019-02-07T02:33:41.667Z,11.40
2019-02-07T02:36:11.412Z,9.93
2019-02-07T02:38:41.064Z,11.80
2019-02-07T02:41:10.947Z,13.27
2019-02-07T02:43:40.729Z,11.33
2019-02-07T02:46:10.565Z,11.27
2019-02-07T02:48:40.443Z,12.70
2019-02-07T02:51:10.089Z,12.77
2019-02-07T02:53:39.934Z,11.00
2019-02-07T02:56:09.730Z,13.17
2019-02-07T02:58:39.665Z,12.93
2019-02-07T03:01:28.415Z,13.10
2019-02-07T03:04:29.258Z,13.20
2019-02-07T03:07:16.781Z,11.53
2019-02-07T03:10:05.743Z,13.90
2019-02-07T03:12:53.174Z,11.33
2019-02-07T03:15:53.809Z,13.90
2019-02-07T03:18:41.034Z,16.63
2019-02-07T03:21:28.490Z,14.27
2019-02-07T03:24:35.230Z,14.17
2019-02-07T03:27:21.243Z,15.23
2019-02-07T03:30:15.721Z,14.73
2019-02-07T03:33:03.242Z,12.13
2019-02-07T03:36:03.998Z,11.80
2019-02-07T03:38:51.741Z,14.60
2019-02-07T03:41:39.241Z,13.33
2019-02-07T03:44:27.804Z,15.17
2019-02-07T03:47:25.659Z,14.10
2019-02-07T03:50:20.170Z,12.50
2019-02-07T03:53:18.022Z,12.23
2019-02-07T03:56:19.475Z,12.60
2019-02-07T03:59:08.131Z,13.47
2019-02-07T04:02:03.441Z,15.27
2019-02-07T04:04:45.028Z,12.77
2019-02-07T04:07:43.215Z,11.30
2019-02-07T04:10:15.421Z,13.67
2019-02-07T04:13:19.011Z,13.33
2019-02-07T04:16:02.014Z,12.03
2019-02-07T04:18:58.751Z,13.37
2019-02-07T04:21:46.278Z,13.27
2019-02-07T04:24:53.362Z,14.70
2019-02-07T04:27:40.895Z,12.13
2019-02-07T04:30:33.029Z,14.70
2019-02-07T04:33:21.589Z,11.20
2019-02-07T04:36:11.879Z,13.07
2019-02-07T04:38:59.298Z,11.50
2019-02-07T04:42:03.114Z,10.10
2019-02-07T04:44:50.372Z,12.07
2019-02-07T04:47:39.495Z,11.97
2019-02-07T04:50:35.216Z,12.90
2019-02-07T04:53:22.945Z,12.07
2019-02-07T04:56:10.059Z,13.63
2019-02-07T04:59:10.694Z,12.10
2019-02-07T05:02:11.349Z,9.17
2019-02-07T05:04:57.338Z,12.13
2019-02-07T05:07:59.101Z,12.70
2019-02-07T05:10:53.885Z,12.27
2019-02-07T05:13:42.433Z,10.87
2019-02-07T05:16:38.882Z,11.23
2019-02-07T05:19:18.522Z,11.40
2019-02-07T05:22:09.014Z,12.10
2019-02-07T05:24:53.676Z,10.20
2019-02-07T05:27:49.414Z,8.90
2019-02-07T05:30:31.635Z,9.13
2019-02-07T05:33:32.460Z,11.17
2019-02-07T05:36:30.001Z,10.67
2019-02-07T05:39:18.549Z,9.87
2019-02-07T05:42:05.978Z,9.50
2019-02-07T05:44:57.430Z,10.23
2019-02-07T05:47:44.621Z,11.90
2019-02-07T05:50:27.677Z,10.70
2019-02-07T05:53:16.188Z,8.77
2019-02-07T05:56:08.815Z,9.90
2019-02-07T05:58:51.863Z,10.50
2019-02-07T06:01:49.322Z,10.60
2019-02-07T06:04:31.018Z,10.03
2019-02-07T06:07:18.449Z,10.87
2019-02-07T06:10:16.009Z,10.53
2019-02-07T06:13:07.725Z,11.07
2019-02-07T06:15:57.022Z,10.40
2019-02-07T06:18:51.179Z,10.40
2019-02-07T06:21:58.292Z,9.23
2019-02-07T06:24:46.102Z,10.50
2019-02-07T06:27:41.212Z,8.40
2019-02-07T06:30:21.977Z,10.43
2019-02-07T06:33:22.512Z,10.17
2019-02-07T06:36:08.605Z,10.40
2019-02-07T06:38:55.929Z,7.83
2019-02-07T06:41:47.453Z,6.07
2019-02-07T06:44:39.189Z,6.83
2019-02-07T06:47:27.726Z,9.87
2019-02-07T06:50:16.499Z,10.67
2019-02-07T06:53:03.702Z,9.17
2019-02-07T06:55:52.356Z,9.47
2019-02-07T06:58:41.114Z,11.90
2019-02-07T07:01:27.619Z,7.07
2019-02-07T07:04:25.079Z,10.80
2019-02-07T07:07:16.909Z,9.73
2019-02-07T07:10:05.765Z,9.43
2019-02-07T07:12:53.205Z,14.07
2019-02-07T07:15:41.745Z,10.20
2019-02-07T07:18:29.401Z,8.17
2019-02-07T07:21:23.864Z,9.67
2019-02-07T07:24:21.631Z,6.17
2019-02-07T07:27:19.713Z,8.17
2019-02-07T07:30:27.413Z,8.47
2019-02-07T07:33:21.219Z,8.00
2019-02-07T07:36:00.540Z,11.33
2019-02-07T07:38:44.890Z,10.80
2019-02-07T07:41:33.647Z,12.00
2019-02-07T07:44:25.467Z,11.13
2019-02-07T07:47:09.530Z,13.47
2019-02-07T07:49:47.939Z,10.07
2019-02-07T07:52:54.596Z,9.73
2019-02-07T07:55:33.935Z,12.20
2019-02-07T07:58:18.495Z,9.67
2019-02-07T08:01:25.580Z,10.97
2019-02-07T08:04:14.231Z,6.20
2019-02-07T08:07:15.805Z,11.13
2019-02-07T08:10:07.323Z,8.80
2019-02-07T08:13:01.810Z,8.93
2019-02-07T08:16:02.447Z,8.57
2019-02-07T08:18:50.991Z,9.20
2019-02-07T08:21:29.464Z,7.57
2019-02-07T08:24:23.074Z,8.80
2019-02-07T08:27:15.778Z,11.17
2019-02-07T08:29:57.619Z,11.20
2019-02-07T08:32:39.315Z,11.50
2019-02-07T08:35:17.336Z,11.83
2019-02-07T08:38:09.144Z,10.63
2019-02-07T08:41:12.895Z,9.47
2019-02-07T08:44:01.216Z,10.73
2019-02-07T08:46:49.897Z,10.90
2019-02-07T08:49:35.485Z,9.17
2019-02-07T08:52:32.999Z,11.20
2019-02-07T08:55:24.623Z,11.60
2019-02-07T08:58:08.465Z,11.23
2019-02-07T09:01:06.035Z,11.30
2019-02-07T09:03:47.718Z,9.97
2019-02-07T09:06:36.489Z,9.67
2019-02-07T09:09:44.690Z,10.90
2019-02-07T09:12:51.988Z,8.70
2019-02-07T09:15:49.338Z,11.27
2019-02-07T09:18:36.255Z,9.40
2019-02-07T09:21:34.327Z,6.90
2019-02-07T09:24:35.041Z,10.03
2019-02-07T09:27:41.436Z,6.57
2019-02-07T09:30:31.419Z,10.37
2019-02-07T09:33:14.451Z,8.20
2019-02-07T09:36:11.901Z,9.63
2019-02-07T09:38:59.332Z,10.77
2019-02-07T09:41:56.683Z,7.13
2019-02-07T09:44:45.229Z,11.67
2019-02-07T09:47:46.849Z,10.60
2019-02-07T09:50:29.197Z,10.20
2019-02-07T09:53:24.092Z,11.83
2019-02-07T09:56:06.510Z,10.00
2019-02-07T09:58:51.325Z,7.37
2019-02-07T10:01:38.695Z,5.93
2019-02-07T10:04:27.468Z,12.07
2019-02-07T10:07:23.186Z,12.87
2019-02-07T10:10:08.963Z,15.80
2019-02-07T10:12:56.488Z,8.27
2019-02-07T10:16:00.301Z,10.73
2019-02-07T10:18:47.625Z,7.63
2019-02-07T10:21:37.009Z,5.60
2019-02-07T10:24:34.764Z,9.63
2019-02-07T10:27:23.629Z,10.20
2019-02-07T10:30:11.571Z,5.67
2019-02-07T10:33:06.273Z,8.83
2019-02-07T10:35:53.592Z,8.57
2019-02-07T10:38:45.413Z,7.67
2019-02-07T10:41:33.149Z,7.90
2019-02-07T10:44:20.158Z,12.10
2019-02-07T10:47:08.810Z,7.60
2019-02-07T10:49:59.270Z,8.43
2019-02-07T10:52:46.222Z,10.83
2019-02-07T10:55:37.740Z,9.33
2019-02-07T10:58:29.469Z,10.57
2019-02-07T11:01:26.929Z,5.63
2019-02-07T11:04:20.292Z,7.10
2019-02-07T11:07:20.725Z,7.93
2019-02-07T11:10:21.665Z,8.80
2019-02-07T11:13:28.342Z,9.10
2019-02-07T11:16:17.100Z,8.20
2019-02-07T11:19:08.421Z,8.43
2019-02-07T11:22:03.112Z,8.87
2019-02-07T11:25:09.890Z,9.90
2019-02-07T11:27:57.215Z,8.30
2019-02-07T11:30:40.142Z,7.13
2019-02-07T11:33:21.415Z,6.10
2019-02-07T11:36:13.366Z,10.10
2019-02-07T11:39:01.909Z,7.80
2019-02-07T11:41:49.123Z,15.17
2019-02-07T11:44:52.842Z,10.33
2019-02-07T11:47:49.061Z,12.27
2019-02-07T11:50:36.605Z,11.10
2019-02-07T11:53:29.245Z,10.80
2019-02-07T11:56:05.829Z,11.40
2019-02-07T11:59:06.751Z,7.37
2019-02-07T12:01:55.300Z,6.00
2019-02-07T12:04:43.887Z,4.60
2019-02-07T12:07:36.395Z,6.37
2019-02-07T12:10:25.666Z,2.07
2019-02-07T12:13:32.345Z,11.00
2019-02-07T12:16:12.660Z,12.20
2019-02-07T12:19:17.707Z,12.63
2019-02-07T12:22:00.662Z,10.57
2019-02-07T12:24:49.321Z,10.70
2019-02-07T12:27:36.741Z,12.23
2019-02-07T12:30:39.458Z,12.27
2019-02-07T12:33:26.896Z,13.10
2019-02-07T12:36:15.412Z,15.80
2019-02-07T12:39:12.183Z,13.27
2019-02-07T12:42:06.748Z,11.23
2019-02-07T12:44:56.112Z,10.87
2019-02-07T12:47:41.496Z,13.10
2019-02-07T12:50:29.532Z,11.73
2019-02-07T12:53:33.307Z,14.77
2019-02-07T12:56:20.728Z,14.20
2019-02-07T12:59:07.991Z,13.40
2019-02-07T13:01:56.024Z,12.37
2019-02-07T13:04:42.839Z,11.30
2019-02-07T13:07:38.453Z,14.50
2019-02-07T13:10:28.585Z,11.57
2019-02-07T13:13:26.271Z,12.07
2019-02-07T13:16:30.261Z,15.03
2019-02-07T13:19:40.212Z,13.17
2019-02-07T13:22:24.139Z,16.07
2019-02-07T13:25:11.487Z,15.07
2019-02-07T13:28:11.883Z,15.37
2019-02-07T13:31:06.448Z,13.90
2019-02-07T13:33:53.913Z,17.90
2019-02-07T13:36:54.719Z,14.63
2019-02-07T13:39:43.285Z,16.00
2019-02-07T13:42:31.733Z,14.03
2019-02-07T13:45:19.089Z,16.37
2019-02-07T13:48:07.607Z,14.63
2019-02-07T13:50:50.532Z,13.93
2019-02-07T13:53:39.084Z,15.80
2019-02-07T13:56:27.633Z,16.50
2019-02-07T13:59:06.969Z,13.40
2019-02-07T14:02:10.984Z,10.70
2019-02-07T14:04:53.802Z,13.73
2019-02-07T14:07:51.264Z,11.20
2019-02-07T14:10:37.560Z,12.93
2019-02-07T14:13:26.118Z,11.70
2019-02-07T14:16:13.640Z,11.00
2019-02-07T14:19:05.264Z,12.77
2019-02-07T14:21:52.281Z,12.80
2019-02-07T14:24:41.243Z,12.33
2019-02-07T14:27:36.860Z,13.43
2019-02-07T14:30:28.092Z,12.80
2019-02-07T14:33:12.533Z,14.17
2019-02-07T14:36:01.091Z,12.97
2019-02-07T14:38:39.400Z,13.37
2019-02-07T14:41:27.949Z,13.03
2019-02-07T14:44:31.555Z,16.70
2019-02-07T14:47:01.323Z,15.27
2019-02-07T14:49:31.107Z,17.33
2019-02-07T14:52:00.796Z,14.00
2019-02-07T14:54:30.526Z,12.30
2019-02-07T14:57:00.302Z,14.17
2019-02-07T14:59:30.236Z,11.40
2019-02-07T15:01:59.792Z,11.90
2019-02-07T15:04:29.578Z,13.40
2019-02-07T15:06:59.691Z,9.77
2019-02-07T15:09:29.477Z,12.90
2019-02-07T15:11:59.129Z,13.40
2019-02-07T15:14:28.723Z,13.80
2019-02-07T15:16:58.222Z,13.73
2019-02-07T15:19:27.883Z,12.20
2019-02-07T15:21:57.572Z,12.63
2019-02-07T15:24:27.312Z,12.30
2019-02-07T15:26:57.169Z,10.87
2019-02-07T15:29:27.160Z,12.97
2019-02-07T15:31:56.774Z,12.57
2019-02-07T15:34:26.708Z,16.13
2019-02-07T15:36:56.767Z,14.90
2019-02-07T15:39:26.619Z,14.63
2019-02-07T15:42:00.828Z,15.77
2019-02-07T15:44:30.623Z,15.40
2019-02-07T15:47:00.550Z,13.97
2019-02-07T15:49:30.307Z,12.93
2019-02-07T15:52:00.108Z,13.70
2019-02-07T15:54:30.439Z,12.67
2019-02-07T15:57:00.032Z,11.73
2019-02-07T15:59:48.661Z,12.13
2019-02-07T16:02:37.216Z,12.00
2019-02-07T16:05:09.532Z,11.90
2019-02-07T16:07:39.182Z,13.50
2019-02-07T16:10:11.661Z,14.00
2019-02-07T16:12:41.456Z,14.50
2019-02-07T16:15:11.973Z,13.00
2019-02-07T16:17:41.904Z,13.97
2019-02-07T16:20:15.194Z,15.43
2019-02-07T16:22:45.407Z,14.27
2019-02-07T16:25:15.440Z,14.53
2019-02-07T16:27:45.522Z,13.27
2019-02-07T16:30:15.716Z,12.87
2019-02-07T16:32:45.432Z,13.50
2019-02-07T16:35:15.236Z,15.23
2019-02-07T16:37:46.009Z,13.90
2019-02-07T16:40:15.786Z,14.70
2019-02-07T16:42:45.476Z,12.83
2019-02-07T16:45:16.753Z,14.30
2019-02-07T16:47:46.226Z,16.07
2019-02-07T16:50:17.199Z,13.77
2019-02-07T16:52:46.871Z,13.70
2019-02-07T16:55:16.516Z,14.30
2019-02-07T16:57:46.132Z,13.00
2019-02-07T17:00:18.346Z,15.80
2019-02-07T17:02:48.185Z,15.57
2019-02-07T17:05:18.346Z,12.73
2019-02-07T17:07:48.176Z,14.40
2019-02-07T17:10:20.110Z,15.03
2019-02-07T17:12:49.873Z,15.50
2019-02-07T17:15:19.536Z,12.80
2019-02-07T17:17:49.280Z,15.63
2019-02-07T17:20:37.866Z,11.10
2019-02-07T17:23:07.554Z,13.40
2019-02-07T17:25:37.311Z,14.30
2019-02-07T17:28:06.972Z,12.03
2019-02-07T17:30:36.641Z,12.60
2019-02-07T17:33:06.282Z,10.93
2019-02-07T17:35:36.067Z,12.90
2019-02-07T17:38:05.683Z,14.43
2019-02-07T17:40:35.384Z,14.90
2019-02-07T17:43:05.008Z,17.00
2019-02-07T17:45:34.675Z,15.77
2019-02-07T17:48:04.339Z,16.30
2019-02-07T17:50:34.334Z,14.90
2019-02-07T17:53:04.975Z,19.60
2019-02-07T17:55:34.661Z,20.33
2019-02-07T17:58:04.304Z,19.77
2019-02-07T18:00:56.160Z,15.90
2019-02-07T18:03:25.851Z,20.43
2019-02-07T18:05:55.593Z,19.53
2019-02-07T18:08:25.370Z,18.17
2019-02-07T18:10:55.115Z,14.77
2019-02-07T18:13:24.895Z,15.60
2019-02-07T18:15:57.262Z,11.23
2019-02-07T18:18:26.032Z,11.63
2019-02-07T18:20:55.629Z,10.80
2019-02-07T18:23:25.287Z,11.27
2019-02-07T18:25:55.051Z,9.67
2019-02-07T18:28:24.672Z,9.43
2019-02-07T18:30:54.263Z,10.60
2019-02-07T18:33:23.910Z,9.53
2019-02-07T18:35:53.587Z,9.13
2019-02-07T18:38:23.133Z,8.70
2019-02-07T18:40:52.790Z,9.30
2019-02-07T18:43:22.465Z,9.33
2019-02-07T18:45:52.483Z,9.50
2019-02-07T18:48:23.316Z,9.13
2019-02-07T18:50:53.744Z,8.90
2019-02-07T18:53:24.186Z,8.57
2019-02-07T18:55:56.533Z,7.60
2019-02-07T18:58:27.073Z,10.47
2019-02-07T19:00:56.769Z,9.57
2019-02-07T19:03:26.411Z,9.10
2019-02-07T19:05:56.811Z,10.30
2019-02-07T19:08:26.865Z,9.07
2019-02-07T19:10:56.481Z,11.40
2019-02-07T19:13:26.090Z,9.67
2019-02-07T19:16:03.344Z,9.80
2019-02-07T19:18:33.074Z,9.63
2019-02-07T19:21:03.057Z,7.80
2019-02-07T19:23:32.712Z,8.57
2019-02-07T19:26:03.612Z,6.57
2019-02-07T19:28:33.543Z,6.00
2019-02-07T19:31:05.131Z,6.30
2019-02-07T19:33:36.400Z,7.60
2019-02-07T19:36:08.168Z,8.03
2019-02-07T19:38:39.033Z,5.00
2019-02-07T19:41:08.750Z,7.60
2019-02-07T19:43:38.497Z,6.80
2019-02-07T19:46:08.241Z,6.30
2019-02-07T19:48:37.958Z,6.90
2019-02-07T19:51:07.722Z,8.97
2019-02-07T19:53:37.319Z,7.60
2019-02-07T19:56:08.088Z,6.60
2019-02-07T19:58:37.655Z,5.43
2019-02-07T20:01:07.986Z,6.10
2019-02-07T20:03:38.964Z,4.80
2019-02-07T20:06:08.496Z,5.60
2019-02-07T20:08:38.232Z,6.80
2019-02-07T20:11:10.170Z,4.47
2019-02-07T20:13:40.606Z,6.60
2019-02-07T20:16:10.184Z,5.50
2019-02-07T20:18:40.159Z,5.27
2019-02-07T20:21:10.079Z,4.63
2019-02-07T20:23:39.915Z,6.33
2019-02-07T20:26:12.911Z,9.27
2019-02-07T20:28:42.581Z,7.40
2019-02-07T20:31:13.409Z,7.53
2019-02-07T20:33:45.315Z,7.20
2019-02-07T20:36:17.275Z,5.33
2019-02-07T20:38:46.840Z,7.37
2019-02-07T20:41:16.607Z,10.33
2019-02-07T20:43:46.972Z,9.47
2019-02-07T20:46:16.639Z,7.00
2019-02-07T20:48:46.606Z,3.70
2019-02-07T20:51:16.289Z,4.20
2019-02-07T20:53:46.174Z,2.20
2019-02-07T20:56:15.952Z,3.17
2019-02-07T20:58:45.589Z,5.23
2019-02-07T21:01:15.286Z,4.60
2019-02-07T21:03:44.914Z,4.40
2019-02-07T21:06:14.677Z,4.30
2019-02-07T21:08:44.342Z,4.27
2019-02-07T21:11:13.990Z,6.63
2019-02-07T21:13:43.665Z,7.43
2019-02-07T21:16:13.300Z,9.60
2019-02-07T21:18:42.951Z,6.63
2019-02-07T21:21:12.812Z,7.37
2019-02-07T21:23:42.496Z,4.17
2019-02-07T21:26:12.256Z,7.70
2019-02-07T21:28:41.901Z,4.63
2019-02-07T21:31:11.605Z,4.77
2019-02-07T21:33:41.343Z,4.30
2019-02-07T21:36:12.546Z,4.33
2019-02-07T21:38:42.188Z,4.40
2019-02-07T21:41:13.577Z,4.63
2019-02-07T21:43:43.311Z,4.00
2019-02-07T21:46:12.896Z,3.80
2019-02-07T21:48:42.631Z,3.77
2019-02-07T21:51:12.251Z,5.13
2019-02-07T21:53:42.189Z,4.67
2019-02-07T21:56:11.838Z,4.63
2019-02-07T21:58:41.537Z,4.10
2019-02-07T22:01:11.190Z,4.57
2019-02-07T22:03:40.817Z,7.00
2019-02-07T22:06:11.127Z,4.17
2019-02-07T22:08:40.757Z,5.00
2019-02-07T22:11:10.435Z,5.70
2019-02-07T22:13:40.065Z,5.83
2019-02-07T22:16:09.628Z,4.80
2019-02-07T22:18:39.317Z,5.57
2019-02-07T22:21:08.849Z,3.47
2019-02-07T22:23:38.528Z,2.67
2019-02-07T22:26:08.192Z,2.23
2019-02-07T22:28:37.922Z,2.93
2019-02-07T22:31:07.557Z,3.13
2019-02-07T22:33:37.231Z,2.63
2019-02-07T22:36:07.019Z,2.80
2019-02-07T22:38:39.097Z,3.37
2019-02-07T22:41:08.798Z,1.50
2019-02-07T22:43:38.555Z,2.50
2019-02-07T22:46:08.521Z,3.20
2019-02-07T22:48:38.145Z,2.50
2019-02-07T22:51:07.711Z,2.23
2019-02-07T22:53:37.414Z,2.00
2019-02-07T22:56:07.056Z,3.30
2019-02-07T22:58:36.483Z,2.70
2019-02-07T23:01:31.731Z,1.73
2019-02-07T23:04:03.079Z,1.60
2019-02-07T23:06:32.681Z,1.40
2019-02-07T23:09:02.263Z,1.80
2019-02-07T23:11:31.926Z,2.23
2019-02-07T23:14:01.703Z,1.37
2019-02-07T23:16:31.629Z,2.67
2019-02-07T23:19:01.335Z,2.10
2019-02-07T23:21:30.975Z,1.40
2019-02-07T23:24:00.561Z,1.27
2019-02-07T23:26:30.136Z,2.83
2019-02-07T23:28:59.796Z,1.40
2019-02-07T23:31:29.537Z,2.73
2019-02-07T23:33:59.216Z,4.17
2019-02-07T23:36:28.870Z,2.50
2019-02-07T23:38:58.427Z,3.20
2019-02-07T23:41:28.093Z,2.40
2019-02-07T23:43:57.764Z,4.30
2019-02-07T23:46:27.719Z,4.00
2019-02-07T23:48:57.386Z,3.20
2019-02-07T23:51:26.993Z,2.30
2019-02-07T23:53:56.561Z,1.80
2019-02-07T23:56:26.319Z,2.10
2019-02-07T23:58:55.920Z,2.30
